createdAt,value
2022-10-17T00:00:07.287Z,11.73
2022-10-17T00:03:31.150Z,9.57
2022-10-17T00:06:37.130Z,8.05
2022-10-17T00:09:43.719Z,10.55
2022-10-17T00:12:46.945Z,9.63
2022-10-17T00:15:50.491Z,8.63
2022-10-17T00:18:54.249Z,10.00
2022-10-17T00:21:58.949Z,8.30
2022-10-17T00:25:02.775Z,9.77
2022-10-17T00:28:06.654Z,8.90
2022-10-17T00:31:10.035Z,8.90
2022-10-17T00:34:13.728Z,9.57
2022-10-17T00:37:18.098Z,9.27
2022-10-17T00:40:21.658Z,9.02
2022-10-17T00:43:24.790Z,9.07
2022-10-17T00:46:32.103Z,8.35
2022-10-17T00:49:39.610Z,7.50
2022-10-17T00:52:46.808Z,7.43
2022-10-17T00:55:54.424Z,9.27
2022-10-17T00:58:58.318Z,8.90
2022-10-17T01:02:06.293Z,9.30
2022-10-17T01:05:11.716Z,7.13
2022-10-17T01:08:16.712Z,8.60
2022-10-17T01:11:39.441Z,8.10
2022-10-17T01:14:59.316Z,9.82
2022-10-17T01:18:20.300Z,9.00
2022-10-17T01:21:53.002Z,7.43
2022-10-17T01:25:27.959Z,8.43
2022-10-17T01:29:02.825Z,10.95
2022-10-17T01:32:17.617Z,9.82
2022-10-17T01:35:31.785Z,8.00
2022-10-17T01:38:47.769Z,8.47
2022-10-17T01:41:59.406Z,7.32
2022-10-17T01:45:11.562Z,8.00
2022-10-17T01:48:22.735Z,7.97
2022-10-17T01:51:36.257Z,7.60
2022-10-17T01:54:46.508Z,7.97
2022-10-17T01:57:56.644Z,9.82
2022-10-17T02:01:04.586Z,7.88
2022-10-17T02:04:12.857Z,9.20
2022-10-17T02:07:16.143Z,9.32
2022-10-17T02:10:31.790Z,7.37
2022-10-17T02:13:56.681Z,7.00
2022-10-17T02:17:14.792Z,7.78
2022-10-17T02:20:29.027Z,8.73
2022-10-17T02:23:47.482Z,7.28
2022-10-17T02:27:03.783Z,8.03
2022-10-17T02:30:13.736Z,8.85
2022-10-17T02:33:25.259Z,7.47
2022-10-17T02:36:42.109Z,8.93
2022-10-17T02:39:49.288Z,8.88
2022-10-17T02:42:57.282Z,7.60
2022-10-17T02:46:00.886Z,7.95
2022-10-17T02:49:13.457Z,8.07
2022-10-17T02:52:30.222Z,9.05
2022-10-17T02:55:42.107Z,8.57
2022-10-17T02:58:51.752Z,7.90
2022-10-17T03:01:56.025Z,7.07
2022-10-17T03:05:00.463Z,9.70
2022-10-17T03:08:06.120Z,8.55
2022-10-17T03:11:09.568Z,8.23
2022-10-17T03:14:12.924Z,8.80
2022-10-17T03:17:17.099Z,8.65
2022-10-17T03:20:20.809Z,9.30
2022-10-17T03:23:25.232Z,7.38
2022-10-17T03:26:30.069Z,10.00
2022-10-17T03:29:34.284Z,6.37
2022-10-17T03:32:39.776Z,10.82
2022-10-17T03:35:43.096Z,7.65
2022-10-17T03:38:48.624Z,7.82
2022-10-17T03:41:53.449Z,9.18
2022-10-17T03:44:56.999Z,7.80
2022-10-17T03:48:00.538Z,9.77
2022-10-17T03:51:07.266Z,8.30
2022-10-17T03:54:16.396Z,8.68
2022-10-17T03:57:20.512Z,9.32
2022-10-17T04:00:24.041Z,9.43
2022-10-17T04:03:33.040Z,8.80
2022-10-17T04:06:37.124Z,9.77
2022-10-17T04:09:42.764Z,9.38
2022-10-17T04:12:56.591Z,9.48
2022-10-17T04:16:03.280Z,8.33
2022-10-17T04:19:06.529Z,8.05
2022-10-17T04:22:16.356Z,9.10
2022-10-17T04:25:20.833Z,10.15
2022-10-17T04:28:25.805Z,8.02
2022-10-17T04:31:29.253Z,8.23
2022-10-17T04:34:42.598Z,9.80
2022-10-17T04:37:45.769Z,8.85
2022-10-17T04:40:57.783Z,8.75
2022-10-17T04:44:00.907Z,10.10
2022-10-17T04:47:04.639Z,7.90
2022-10-17T04:50:08.263Z,7.82
2022-10-17T04:53:13.068Z,10.68
2022-10-17T04:56:20.904Z,9.60
2022-10-17T04:59:24.091Z,8.82
2022-10-17T05:02:36.348Z,7.73
2022-10-17T05:05:41.643Z,8.93
2022-10-17T05:08:46.686Z,8.02
2022-10-17T05:11:51.485Z,7.72
2022-10-17T05:14:55.479Z,8.90
2022-10-17T05:18:02.070Z,7.77
2022-10-17T05:21:06.647Z,7.78
2022-10-17T05:24:14.549Z,8.48
2022-10-17T05:27:18.908Z,8.63
2022-10-17T05:30:22.794Z,8.23
2022-10-17T05:33:31.539Z,9.03
2022-10-17T05:36:34.877Z,8.23
2022-10-17T05:39:40.341Z,8.27
2022-10-17T05:42:49.663Z,8.23
2022-10-17T05:45:55.422Z,8.48
2022-10-17T05:48:59.170Z,8.73
2022-10-17T05:52:02.737Z,10.07
2022-10-17T05:55:11.465Z,10.15
2022-10-17T05:58:27.041Z,7.85
2022-10-17T06:01:35.988Z,9.15
2022-10-17T06:04:40.956Z,10.03
2022-10-17T06:07:45.260Z,10.50
2022-10-17T06:10:50.858Z,8.30
2022-10-17T06:13:55.912Z,9.98
2022-10-17T06:17:02.250Z,9.30
2022-10-17T06:20:08.946Z,8.30
2022-10-17T06:23:12.069Z,9.30
2022-10-17T06:26:29.828Z,11.90
2022-10-17T06:29:35.102Z,8.27
2022-10-17T06:32:39.122Z,9.07
2022-10-17T06:35:42.351Z,8.07
2022-10-17T06:38:46.305Z,11.23
2022-10-17T06:41:57.216Z,10.32
2022-10-17T06:45:16.688Z,11.18
2022-10-17T06:48:31.503Z,9.77
2022-10-17T06:51:50.361Z,10.37
2022-10-17T06:54:56.735Z,8.18
2022-10-17T06:58:42.549Z,9.65
2022-10-17T07:02:03.775Z,9.68
2022-10-17T07:05:08.162Z,10.35
2022-10-17T07:08:11.378Z,9.23
2022-10-17T07:11:20.288Z,9.52
2022-10-17T07:14:31.969Z,9.60
2022-10-17T07:17:37.744Z,8.30
2022-10-17T07:20:40.867Z,9.18
2022-10-17T07:23:44.212Z,9.13
2022-10-17T07:26:47.634Z,10.65
2022-10-17T07:29:51.460Z,10.73
2022-10-17T07:33:03.762Z,10.98
2022-10-17T07:36:08.396Z,10.45
2022-10-17T07:39:12.154Z,10.03
2022-10-17T07:42:15.703Z,10.00
2022-10-17T07:45:19.097Z,9.52
2022-10-17T07:48:26.216Z,9.82
2022-10-17T07:51:29.726Z,11.00
2022-10-17T07:54:33.159Z,8.23
2022-10-17T07:57:36.314Z,8.25
2022-10-17T08:00:41.046Z,9.65
2022-10-17T08:03:48.567Z,10.15
2022-10-17T08:06:56.427Z,10.23
2022-10-17T08:10:04.064Z,10.83
2022-10-17T08:13:07.930Z,10.85
2022-10-17T08:16:14.226Z,10.07
2022-10-17T08:19:19.035Z,14.75
2022-10-17T08:22:22.153Z,12.75
2022-10-17T08:25:25.760Z,12.03
2022-10-17T08:28:29.793Z,14.82
2022-10-17T08:31:33.035Z,10.27
2022-10-17T08:34:37.662Z,12.75
2022-10-17T08:37:41.375Z,11.80
2022-10-17T08:40:44.483Z,9.87
2022-10-17T08:44:09.028Z,14.25
2022-10-17T08:47:20.584Z,11.85
2022-10-17T08:50:37.092Z,8.80
2022-10-17T08:53:46.423Z,8.30
2022-10-17T08:56:54.338Z,9.07
2022-10-17T08:59:57.958Z,10.75
2022-10-17T09:03:23.658Z,10.25
2022-10-17T09:06:33.638Z,9.27
2022-10-17T09:09:52.357Z,21.05
2022-10-17T09:13:31.906Z,12.33
2022-10-17T09:17:00.788Z,9.48
2022-10-17T09:20:14.223Z,10.07
2022-10-17T09:23:24.823Z,9.60
2022-10-17T09:26:29.477Z,7.47
2022-10-17T09:29:37.900Z,9.03
2022-10-17T09:32:43.644Z,11.68
2022-10-17T09:41:00.663Z,8.57
2022-10-17T09:44:21.790Z,7.53
2022-10-17T09:47:32.931Z,7.60
2022-10-17T09:50:36.268Z,10.35
2022-10-17T09:53:46.185Z,7.00
2022-10-17T09:57:02.577Z,7.75
2022-10-17T10:00:09.141Z,8.45
2022-10-17T10:03:21.878Z,13.10
2022-10-17T10:06:25.160Z,8.23
2022-10-17T10:09:36.872Z,8.68
2022-10-17T10:12:42.509Z,11.00
2022-10-17T10:15:49.107Z,7.70
2022-10-17T10:18:53.343Z,10.17
2022-10-17T10:21:58.756Z,8.25
2022-10-17T10:25:16.088Z,7.03
2022-10-17T10:28:20.219Z,8.77
2022-10-17T10:31:36.161Z,10.50
2022-10-17T10:34:49.874Z,9.33
2022-10-17T10:37:56.698Z,9.32
2022-10-17T10:41:07.412Z,9.57
2022-10-17T10:44:17.033Z,8.38
2022-10-17T10:47:26.591Z,8.65
2022-10-17T10:50:42.978Z,12.47
2022-10-17T10:53:58.057Z,9.70
2022-10-17T10:57:06.190Z,9.30
2022-10-17T11:00:19.844Z,12.73
2022-10-17T11:03:33.254Z,9.30
2022-10-17T11:06:43.115Z,9.20
2022-10-17T11:09:57.310Z,10.20
2022-10-17T11:13:11.312Z,13.07
2022-10-17T11:16:36.625Z,8.95
2022-10-17T11:19:51.866Z,8.68
2022-10-17T11:23:01.876Z,8.70
2022-10-17T11:26:15.371Z,8.10
2022-10-17T11:29:18.433Z,9.18
2022-10-17T11:32:31.437Z,9.68
2022-10-17T11:35:42.050Z,8.20
2022-10-17T11:38:52.366Z,8.10
2022-10-17T11:42:06.739Z,9.55
2022-10-17T11:45:17.978Z,8.20
2022-10-17T11:48:29.696Z,8.93
2022-10-17T11:52:01.474Z,9.02
2022-10-17T11:55:18.464Z,7.37
2022-10-17T11:58:37.823Z,7.82
2022-10-17T12:01:49.944Z,7.68
2022-10-17T12:05:05.190Z,8.65
2022-10-17T12:08:22.025Z,6.57
2022-10-17T12:11:53.908Z,6.60
2022-10-17T12:15:31.544Z,7.55
2022-10-17T12:18:34.969Z,10.40
2022-10-17T12:21:58.369Z,7.13
2022-10-17T12:25:05.292Z,11.93
2022-10-17T12:28:17.792Z,7.20
2022-10-17T12:31:33.356Z,8.55
2022-10-17T12:34:37.276Z,7.57
2022-10-17T12:38:15.129Z,6.60
2022-10-17T12:41:54.920Z,7.25
2022-10-17T12:44:58.484Z,7.57
2022-10-17T12:48:01.455Z,7.72
2022-10-17T12:54:47.954Z,8.05
2022-10-17T12:58:03.145Z,7.75
2022-10-17T13:01:23.837Z,6.03
2022-10-17T13:04:30.823Z,8.80
2022-10-17T13:07:37.109Z,8.15
2022-10-17T13:10:43.226Z,6.05
2022-10-17T13:13:52.114Z,7.70
2022-10-17T13:16:58.901Z,9.23
2022-10-17T13:20:02.707Z,7.18
2022-10-17T13:23:06.225Z,6.63
2022-10-17T13:26:20.062Z,5.38
2022-10-17T13:29:28.664Z,8.20
2022-10-17T13:32:38.781Z,9.10
2022-10-17T13:35:59.370Z,8.52
2022-10-17T13:39:13.072Z,8.38
2022-10-17T13:42:25.608Z,7.30
2022-10-17T13:45:33.349Z,6.55
2022-10-17T13:48:39.422Z,10.77
2022-10-17T13:51:46.176Z,6.10
2022-10-17T13:54:53.600Z,6.68
2022-10-17T13:57:57.300Z,6.22
2022-10-17T14:01:02.545Z,6.53
2022-10-17T14:04:14.112Z,10.10
2022-10-17T14:07:46.223Z,6.80
2022-10-17T14:10:56.008Z,6.22
2022-10-17T14:14:02.111Z,6.30
2022-10-17T14:17:14.788Z,12.15
2022-10-17T14:23:45.855Z,6.70
2022-10-17T14:26:51.820Z,8.27
2022-10-17T14:30:00.671Z,7.22
2022-10-17T14:33:17.560Z,6.78
2022-10-17T14:36:30.869Z,6.10
2022-10-17T14:39:34.430Z,7.43
2022-10-17T14:42:41.428Z,8.23
2022-10-17T14:45:47.986Z,8.80
2022-10-17T14:49:06.269Z,10.25
2022-10-17T14:52:27.222Z,7.53
2022-10-17T14:55:33.261Z,6.63
2022-10-17T14:58:36.713Z,9.20
2022-10-17T15:01:39.684Z,7.10
2022-10-17T15:04:44.412Z,11.05
2022-10-17T15:07:48.070Z,12.93
2022-10-17T15:10:52.724Z,11.57
2022-10-17T15:13:55.736Z,6.68
2022-10-17T15:16:59.090Z,9.27
2022-10-17T15:20:03.509Z,10.85
2022-10-17T15:23:06.807Z,10.67
2022-10-17T15:26:19.386Z,10.63
2022-10-17T15:29:22.664Z,12.63
2022-10-17T15:32:25.700Z,13.40
2022-10-17T15:35:30.763Z,13.38
2022-10-17T15:38:34.798Z,14.00
2022-10-17T15:41:38.517Z,12.05
2022-10-17T15:44:44.162Z,10.52
2022-10-17T15:47:54.047Z,9.57
2022-10-17T15:50:58.930Z,10.82
2022-10-17T15:54:02.889Z,13.60
2022-10-17T15:57:06.054Z,14.23
2022-10-17T16:00:17.503Z,11.77
2022-10-17T16:06:30.319Z,13.55
2022-10-17T16:09:33.939Z,12.03
2022-10-17T16:12:41.289Z,14.23
2022-10-17T16:15:44.325Z,12.13
2022-10-17T16:18:47.954Z,13.98
2022-10-17T16:21:52.295Z,12.63
2022-10-17T16:24:59.193Z,14.93
2022-10-17T16:28:02.553Z,13.05
2022-10-17T16:31:15.810Z,16.60
2022-10-17T16:34:18.770Z,13.32
2022-10-17T16:37:23.817Z,16.67
2022-10-17T16:40:27.052Z,12.07
2022-10-17T16:43:36.477Z,14.95
2022-10-17T16:46:39.586Z,12.82
2022-10-17T16:49:45.312Z,17.70
2022-10-17T16:52:50.185Z,16.63
2022-10-17T16:56:01.622Z,19.77
2022-10-17T16:59:04.750Z,18.10
2022-10-17T17:02:08.756Z,20.75
2022-10-17T17:05:12.400Z,18.45
2022-10-17T17:08:17.298Z,21.35
2022-10-17T17:11:23.265Z,18.37
2022-10-17T17:14:27.166Z,18.55
2022-10-17T17:17:30.752Z,19.65
2022-10-17T17:20:48.562Z,19.73
2022-10-17T17:23:52.884Z,20.10
2022-10-17T17:26:58.505Z,20.37
2022-10-17T17:30:01.430Z,21.40
2022-10-17T17:33:06.667Z,20.45
2022-10-17T17:36:14.888Z,22.65
2022-10-17T17:39:20.060Z,20.83
2022-10-17T17:42:23.058Z,26.00
2022-10-17T17:45:26.936Z,23.88
2022-10-17T17:48:30.175Z,26.70
2022-10-17T17:51:34.779Z,29.27
2022-10-17T17:54:40.957Z,30.52
2022-10-17T17:57:44.494Z,24.60
2022-10-17T18:00:47.934Z,29.10
2022-10-17T18:03:55.836Z,27.85
2022-10-17T18:06:58.848Z,28.70
2022-10-17T18:10:06.950Z,29.38
2022-10-17T18:13:10.135Z,26.43
2022-10-17T18:16:14.962Z,26.88
2022-10-17T18:19:18.281Z,28.95
2022-10-17T18:22:25.965Z,26.42
2022-10-17T18:25:31.322Z,24.42
2022-10-17T18:28:36.242Z,21.07
2022-10-17T18:31:39.755Z,24.45
2022-10-17T18:34:44.114Z,21.02
2022-10-17T18:37:47.163Z,21.90
2022-10-17T18:40:52.051Z,20.00
2022-10-17T18:43:56.680Z,17.63
2022-10-17T18:47:03.841Z,20.75
2022-10-17T18:50:08.374Z,20.40
2022-10-17T18:53:11.944Z,17.73
2022-10-17T18:56:17.853Z,22.58
2022-10-17T18:59:23.060Z,22.03
2022-10-17T19:02:26.055Z,19.75
2022-10-17T19:05:30.868Z,19.75
2022-10-17T19:08:34.164Z,18.30
2022-10-17T19:11:40.229Z,18.35
2022-10-17T19:14:43.252Z,21.03
2022-10-17T19:17:47.217Z,17.73
2022-10-17T19:20:52.509Z,18.75
2022-10-17T19:23:58.671Z,14.98
2022-10-17T19:27:05.128Z,17.10
2022-10-17T19:30:10.744Z,19.53
2022-10-17T19:33:15.405Z,17.40
2022-10-17T19:36:21.458Z,14.88
2022-10-17T19:39:26.610Z,16.33
2022-10-17T19:42:32.731Z,16.35
2022-10-17T19:45:36.152Z,19.97
2022-10-17T19:48:40.744Z,18.33
2022-10-17T19:51:44.211Z,17.80
2022-10-17T19:54:47.678Z,15.43
2022-10-17T19:57:52.538Z,14.18
2022-10-17T20:01:00.992Z,19.10
2022-10-17T20:04:04.052Z,13.85
2022-10-17T20:07:07.297Z,15.73
2022-10-17T20:10:10.755Z,15.02
2022-10-17T20:13:15.926Z,15.60
2022-10-17T20:16:21.537Z,13.93
2022-10-17T20:19:24.954Z,15.55
2022-10-17T20:22:28.272Z,12.02
2022-10-17T20:25:33.348Z,14.30
2022-10-17T20:28:37.800Z,14.30
2022-10-17T20:31:43.215Z,12.93
2022-10-17T20:34:46.285Z,17.48
2022-10-17T20:37:50.032Z,23.52
2022-10-17T20:40:53.006Z,12.90
2022-10-17T20:43:58.221Z,23.13
2022-10-17T20:47:02.675Z,25.47
2022-10-17T20:50:07.384Z,20.55
2022-10-17T20:53:35.319Z,13.38
2022-10-17T20:56:36.160Z,13.80
2022-10-17T20:59:41.802Z,16.00
2022-10-17T21:02:45.431Z,14.13
2022-10-17T21:05:48.623Z,14.00
2022-10-17T21:08:55.953Z,12.30
2022-10-17T21:11:59.071Z,12.00
2022-10-17T21:15:04.936Z,15.75
2022-10-17T21:18:07.896Z,12.10
2022-10-17T21:21:16.109Z,9.77
2022-10-17T21:24:20.783Z,9.55
2022-10-17T21:27:24.378Z,12.98
2022-10-17T21:30:28.789Z,13.82
2022-10-17T21:33:32.170Z,9.60
2022-10-17T21:36:35.425Z,11.73
2022-10-17T21:39:38.938Z,11.90
2022-10-17T21:42:41.927Z,11.77
2022-10-17T21:45:46.874Z,10.85
2022-10-17T21:48:51.832Z,12.10
2022-10-17T21:51:55.343Z,10.30
2022-10-17T21:54:58.454Z,14.43
2022-10-17T21:58:01.864Z,9.90
2022-10-17T22:01:10.224Z,9.50
2022-10-17T22:04:19.819Z,7.77
2022-10-17T22:07:22.827Z,11.77
2022-10-17T22:10:26.361Z,10.88
2022-10-17T22:13:29.804Z,10.23
2022-10-17T22:16:36.011Z,9.40
2022-10-17T22:19:39.040Z,11.40
2022-10-17T22:22:42.205Z,8.93
2022-10-17T22:25:45.198Z,9.98
2022-10-17T22:28:48.471Z,11.75
2022-10-17T22:31:52.958Z,9.85
2022-10-17T22:34:56.120Z,10.13
2022-10-17T22:37:59.095Z,7.75
2022-10-17T22:41:02.836Z,8.18
2022-10-17T22:44:06.988Z,8.43
2022-10-17T22:47:11.654Z,10.40
2022-10-17T22:50:14.878Z,8.47
2022-10-17T22:53:23.856Z,8.75
2022-10-17T22:56:27.097Z,7.55
2022-10-17T22:59:30.455Z,8.52
2022-10-17T23:02:35.007Z,7.70
2022-10-17T23:05:38.511Z,7.37
2022-10-17T23:08:43.608Z,7.13
2022-10-17T23:11:47.246Z,9.80
2022-10-17T23:14:50.414Z,7.78
2022-10-17T23:17:55.537Z,8.73
2022-10-17T23:21:01.339Z,7.27
2022-10-17T23:24:05.381Z,8.30
2022-10-17T23:27:08.807Z,9.35
2022-10-17T23:30:12.944Z,8.93
2022-10-17T23:33:17.388Z,7.60
2022-10-17T23:36:22.161Z,6.37
2022-10-17T23:39:25.231Z,7.55
2022-10-17T23:42:29.271Z,8.23
2022-10-17T23:45:36.053Z,6.95
2022-10-17T23:48:43.301Z,8.25
2022-10-17T23:51:46.361Z,6.83
2022-10-17T23:54:50.166Z,8.32
2022-10-17T23:57:53.637Z,6.70
